Meteo4 di Emilio Bellavite Il primo osservatorio Meteo di Verona  
 
venerdì 22 giugno 2018
 
 
dati in tempo reale
Di seguito i dati in tempo reale delle stazioni on line, suddivise per regione, della rete di Meteo4. Cliccando sul link della stazione, ove presente, si accederà al sito web personale.
Stazioni online
Regione ABRUZZO
Località Giorno Ora Temp. Umid. Relat. Dew Point Press. Atm. Velocità Vento Direz. Vento Precip. Temp.
Min
Temp.
Max
San Salvo3 (CH) 21/06/18 23.59 22.7 °C 69 % 16.7 °C 1010.9 hPa 0.0 Km/h SW 0.0 mm  18.8 °C 29.4 °C
Vasto (CH) 21/06/18 22.06 24.0 °C 10 % -9.5 °C 1011.5 hPa 0.0 Km/h --- 0.0 mm  18.2 °C 27.8 °C
 
 
Regione BASILICATA
Località Giorno Ora Temp. Umid. Relat. Dew Point Press. Atm. Velocità Vento Direz. Vento Precip. Temp.
Min
Temp.
Max
Miglionico (MT) 21/06/18 23.50 21.3 °C 71 % 15.9 °C 1012.6 hPa 0.0 Km/h --- 0.0 mm  18.3 °C 28.8 °C
 
 
Regione CALABRIA
Località Giorno Ora Temp. Umid. Relat. Dew Point Press. Atm. Velocità Vento Direz. Vento Precip. Temp.
Min
Temp.
Max
Bisignano (CS) 21/06/18 23.58 19.3 °C 67 % 13.0 °C 1017.1 hPa 0.0 Km/h N 0.0 mm  16.0 °C 31.3 °C
Savelli (KR) 21/06/18 23.59 18.8 °C 59 % 10.6 °C 1015.4 hPa 0.0 Km/h SW 0.0 mm  16.8 °C 23.2 °C
 
 
Regione CAMPANIA
Località Giorno Ora Temp. Umid. Relat. Dew Point Press. Atm. Velocità Vento Direz. Vento Precip. Temp.
Min
Temp.
Max
Torre Annunziata (NA) 21/06/18 23.55 22.9 °C 3 % -24.6 °C 1016.3 hPa 0.0 Km/h WNW 0.0 mm  19.7 °C 26.0 °C
 
 
Regione EMILIA ROMAGNA
Località Giorno Ora Temp. Umid. Relat. Dew Point Press. Atm. Velocità Vento Direz. Vento Precip. Temp.
Min
Temp.
Max
Bellaria Igea Marina (RN) 21/06/18 23.58 24.2 °C 73 % 19.1 °C 1011.5 hPa 1.6 Km/h WSW 0.0 mm  18.7 °C 27.9 °C
Bellaria Igea Marina2 (RN) 21/06/18 23.58 24.5 °C 74 % 19.6 °C 1010.9 hPa 0.0 Km/h SSW 0.0 mm  18.8 °C 28.2 °C
Bellaria Igea Marina3 (RN) 21/06/18 23.58 23.5 °C 73 % 18.4 °C 1010.2 hPa 0.0 Km/h SW 0.0 mm  17.9 °C 30.3 °C
Carpi (MO) 21/06/18 23.58 25.1 °C 61 % 17.1 °C 1010.7 hPa 0.0 Km/h WSW 0.0 mm  19.6 °C 34.2 °C
Filo di Argenta (FE) 21/06/18 23.55 23.1 °C 72 % 17.8 °C 1012.0 hPa 3.9 Km/h S 0.0 mm  17.7 °C 33.3 °C
Masiera di Bagnacavallo (RA) 21/06/18 23.55 22.8 °C 74 % 17.9 °C 1007.5 hPa 0.0 Km/h --- 0.0 mm  18.2 °C 32.4 °C
Migliarino (FE) 21/06/18 23.58 24.3 °C 72 % 18.9 °C 1009.8 hPa 6.1 Km/h N 5.1 mm  20.5 °C 34.8 °C
Ponte San Pellegrino (MO) 21/06/18 23.53 25.5 °C 60 % 17.2 °C 1014.1 hPa 7.2 Km/h SW 0.0 mm  17.8 °C 32.6 °C
Riccione (RN) 21/06/18 23.30 24.6 °C 73 % 19.4 °C 1010.1 hPa 0.0 Km/h --- 0.0 mm  18.0 °C 28.6 °C
Rimini (RN) 21/06/18 23.40 24.8 °C 68 % 18.5 °C 1012.1 hPa 0.0 Km/h SW 0.0 mm  19.2 °C 28.0 °C
Rimini Zona Palas (RN) 21/06/18 23.46 25.7 °C 63 % 18.3 °C 1012.1 hPa 4.8 Km/h WSW 0.0 mm  19.4 °C 28.9 °C
Stiore - Monteveglio (BO) 22/06/18 00.00 24.4 °C 69 % 18.4 °C 1008.5 hPa 12.9 Km/h SE 0.0 mm  18.1 °C 32.3 °C
 
 
Regione FRIULI V.G.
Località Giorno Ora Temp. Umid. Relat. Dew Point Press. Atm. Velocità Vento Direz. Vento Precip. Temp.
Min
Temp.
Max
Budoia (PN) 21/06/18 23.45 22.9 °C 77 % 18.7 °C 1011.6 hPa 4.8 Km/h NW 0.0 mm  22.9 °C 22.9 °C
Campoformido (UD) 21/06/18 23.55 23.9 °C 75 % 19.2 °C 1012.0 hPa 0.0 Km/h ESE 0.0 mm  20.5 °C 30.1 °C
Codroipo (UD) 21/06/18 23.58 24.0 °C 75 % 19.3 °C 1011.2 hPa 0.6 Km/h W 0.0 mm  20.7 °C 32.3 °C
Fogliano Redipuglia (GO) 21/06/18 23.59 23.5 °C 72 % 18.2 °C 1012.2 hPa 3.2 Km/h E 0.0 mm  19.3 °C 30.4 °C
Fontanafredda (PN) 21/06/18 23.59 22.7 °C 89 % 20.8 °C 1011.2 hPa 2.2 Km/h ENE 0.0 mm  17.7 °C 31.0 °C
Ovaro loc. Liariis (UD) 21/06/18 23.45 17.1 °C 94 % 16.1 °C 1013.0 hPa 0.0 Km/h --- 1.8 mm  15.1 °C 28.6 °C
Pordenone (PN) 21/06/18 23.50 25.2 °C 70 % 19.4 °C 1011.0 hPa 0.0 Km/h E 0.0 mm  22.1 °C 33.2 °C
Sacile (PN) 21/06/18 23.45 24.6 °C 70 % 18.7 °C 1012.1 hPa 1.6 Km/h NNE 0.0 mm  19.2 °C 32.1 °C
Staranzano (GO) 21/06/18 23.40 24.8 °C 74 % 19.8 °C 1012.4 hPa 0.0 Km/h S 0.0 mm  20.2 °C 29.5 °C
 
 
Regione LAZIO
Località Giorno Ora Temp. Umid. Relat. Dew Point Press. Atm. Velocità Vento Direz. Vento Precip. Temp.
Min
Temp.
Max
Ardea (RM) 21/06/18 23.57 22.9 °C 84 % 20.0 °C 1016.1 hPa 0.0 Km/h SE 0.0 mm  18.9 °C 28.5 °C
Capodimonte (VT) 21/06/18 23.55 19.5 °C 94 % 18.5 °C 1015.6 hPa 0.0 Km/h N 3.0 mm  18.8 °C 26.6 °C
Caprarola Centro Storico (VT) 21/06/18 23.58 19.0 °C 76 % 14.7 °C 1014.0 hPa 0.0 Km/h SSW 2.8 mm  18.2 °C 27.9 °C
Civita Castellana (VT) 21/06/18 23.59 20.4 °C 74 % 15.6 °C 1016.0 hPa 2.0 Km/h S 0.0 mm  17.3 °C 29.8 °C
Marta (VT) 21/06/18 23.55 19.6 °C 91 % 18.1 °C 1014.4 hPa 5.6 Km/h SSW 0.6 mm  18.7 °C 26.6 °C
Pomezia (RM) 21/06/18 23.59 23.4 °C 85 % 20.8 °C 1014.6 hPa 1.6 Km/h NW 0.0 mm  18.6 °C 28.2 °C
Ronciglione Centro (VT) 21/06/18 23.55 20.0 °C 61 % 12.2 °C 1018.0 hPa 0.0 Km/h NW 0.0 mm  18.8 °C 26.6 °C
Ronciglione - Ponte Cuzzoli (VT) 21/06/18 23.55 19.4 °C 73 % 14.4 °C 1015.3 hPa 1.6 Km/h W 0.0 mm  16.7 °C 27.9 °C
S. Lorenzo Nuovo (VT) 21/06/18 23.58 18.3 °C 65 % 11.6 °C 1015.3 hPa 0.0 Km/h SE 10.5 mm  17.1 °C 24.8 °C
Valentano (VT) 22/06/18 00.00 18.2 °C 93 % 17.2 °C 1013.7 hPa 1.7 Km/h S 2.5 mm  17.7 °C 24.7 °C
Viterbo Santa Barbara (VT) 21/06/18 22.04 20.6 °C 70 % 14.9 °C 1014.4 hPa 7.2 Km/h SSW 0.2 mm  17.9 °C 27.8 °C
Viterbo Strada Bagni (VT) 22/06/18 00.00 17.4 °C 87 % 15.6 °C 1015.4 hPa 0.0 Km/h W 0.0 mm  0.0 °C 0.0 °C
Vitorchiano Pallone (VT) 21/06/18 18.50 25.1 °C 65 % 18.1 °C 1012.9 hPa 9.7 Km/h SW 4.6 mm  18.7 °C 29.1 °C
 
 
Regione LIGURIA
Località Giorno Ora Temp. Umid. Relat. Dew Point Press. Atm. Velocità Vento Direz. Vento Precip. Temp.
Min
Temp.
Max
Arenzano (GE) 21/06/18 23.58 23.9 °C 83 % 20.9 °C 1013.8 hPa 6.4 Km/h ENE 0.0 mm  23.4 °C 27.1 °C
Cosseria Lidora (SV) 21/06/18 23.45 21.1 °C 91 % 19.5 °C 1011.9 hPa 9.7 Km/h ESE 0.0 mm  16.2 °C 26.6 °C
Genova Albaro (GE) 21/06/18 23.58 23.4 °C 79 % 19.5 °C 1032.0 hPa 4.9 Km/h SE 0.0 mm  21.0 °C 29.2 °C
Genova Erzelli (GE) 21/06/18 23.13 24.3 °C 85 % 21.6 °C 1012.7 hPa 1.6 Km/h SW 0.0 mm  23.1 °C 28.1 °C
Loano (SV) 21/06/18 23.55 24.9 °C 88 % 22.8 °C 1012.8 hPa 8.0 Km/h N 0.0 mm  23.4 °C 27.3 °C
Moneglia loc. Casale (GE) 21/06/18 23.59 21.4 °C 90 % 19.7 °C 1014.9 hPa 0.0 Km/h NE 0.0 mm  21.3 °C 28.9 °C
Moneglia loc. La Secca (GE) 21/06/18 23.59 23.3 °C 86 % 20.8 °C 1013.5 hPa 0.0 Km/h NE 0.0 mm  23.3 °C 27.6 °C
Ortonovo (SP) 21/06/18 23.58 21.3 °C 90 % 19.6 °C 1015.9 hPa 6.4 Km/h E 0.0 mm  21.3 °C 28.7 °C
Varese Ligure (SP) 21/06/18 23.59 17.7 °C 23 % -3.7 °C 1029.9 hPa 2.0 Km/h ONO 0.0 mm  15.7 °C 29.1 °C
 
 
Regione LOMBARDIA
Località Giorno Ora Temp. Umid. Relat. Dew Point Press. Atm. Velocità Vento Direz. Vento Precip. Temp.
Min
Temp.
Max
Bernate Ticino fraz. Casate (MI) 21/06/18 23.57 23.6 °C 61 % 15.6 °C 1009.6 hPa 0.0 Km/h SW 0.0 mm  19.9 °C 32.0 °C
Brebbia (VA) 21/06/18 23.30 23.2 °C 76 % 18.7 °C 1011.5 hPa 0.0 Km/h --- 0.0 mm  19.8 °C 30.8 °C
Calcinato (BS) 21/06/18 23.58 26.4 °C 58 % 17.4 °C 1012.5 hPa 16.1 Km/h NNW 0.0 mm  21.3 °C 31.3 °C
Cassano Magnago (VA) 21/06/18 23.49 24.7 °C 60 % 16.4 °C 1010.0 hPa 0.0 Km/h W 0.8 mm  19.9 °C 31.9 °C
Cavaria con Premezzo (VA) 19/06/18 10.44 26.4 °C 53 % 16.1 °C 1018.7 hPa 3.0 Km/h SSW 0.0 mm  18.8 °C 26.6 °C
Costa Volpino (BG) 21/06/18 23.49 20.4 °C 83 % 17.4 °C 1008.7 hPa 1.6 Km/h NNW 0.0 mm  18.8 °C 30.4 °C
Dorno (PV) 21/06/18 23.58 24.5 °C 65 % 17.5 °C 1010.7 hPa 4.6 Km/h SW 0.0 mm  20.4 °C 32.7 °C
Gaggiano (MI) 21/06/18 23.59 24.4 °C 62 % 16.6 °C 1010.8 hPa 5.6 Km/h WSW 0.0 mm  21.5 °C 32.8 °C
Laxolo (BG) 21/06/18 23.56 20.6 °C 99 % 20.4 °C 1013.2 hPa 0.0 Km/h NNW 0.0 mm  17.6 °C 29.2 °C
Lesmo (MB) 21/06/18 23.55 23.4 °C 63 % 16.0 °C 1011.3 hPa 3.2 Km/h W 0.0 mm  18.0 °C 31.1 °C
Lovere (BG) 21/06/18 23.48 22.1 °C 58 % 0.0 °C 1013.0 hPa 0.0 Km/h N 0.0 mm  20.2 °C 30.7 °C
Malnate San Salvatore (VA) 21/06/18 23.55 21.0 °C 84 % 18.2 °C 1011.9 hPa 0.0 Km/h --- 1.3 mm  18.1 °C 29.9 °C
Mezzana Bigli (PV) 21/06/18 23.55 23.8 °C 68 % 17.6 °C 1009.9 hPa 0.2 Km/h SSE 0.0 mm  18.6 °C 33.8 °C
Morbegno (SO) 21/06/18 23.59 22.1 °C 73 % 17.0 °C 1011.4 hPa 10.1 Km/h ESE 0.0 mm  21.3 °C 31.9 °C
Rivalta sul Mincio (MN) 21/06/18 23.54 25.2 °C 66 % 18.4 °C 1010.4 hPa 3.5 Km/h SW 0.0 mm  19.8 °C 33.0 °C
Vigevano (PV) 21/06/18 19.15 31.0 °C 42 % 16.6 °C 1009.2 hPa 6.1 Km/h SW 0.0 mm  21.9 °C 33.2 °C
 
 
Regione MARCHE
Località Giorno Ora Temp. Umid. Relat. Dew Point Press. Atm. Velocità Vento Direz. Vento Precip. Temp.
Min
Temp.
Max
Ancona (AN) 21/06/18 23.50 22.4 °C 80 % 18.8 °C 1013.0 hPa 0.0 Km/h ESE 0.0 mm  17.4 °C 29.4 °C
Ancona loc. Brecce Bianche (AN) 21/06/18 23.49 23.1 °C 66 % 16.4 °C 1019.5 hPa 0.0 Km/h S 0.0 mm  17.5 °C 27.9 °C
Barbara (AN) 21/06/18 23.58 23.8 °C 71 % 18.2 °C 1014.7 hPa 10.4 Km/h SW 0.0 mm  19.1 °C 30.7 °C
Ca' Gallo (PU) 21/06/18 23.49 24.3 °C 63 % 16.8 °C 1009.4 hPa 0.3 Km/h NNW 0.0 mm  17.5 °C 29.3 °C
Marina di Montemarciano (AN) 21/06/18 23.55 23.9 °C 74 % 19.0 °C 1012.1 hPa 0.0 Km/h SW 0.0 mm  18.5 °C 29.0 °C
Montelabbate (PU) 21/06/18 23.49 26.2 °C 52 % 15.6 °C 1007.0 hPa 7.4 Km/h SSW 0.0 mm  17.8 °C 31.4 °C
 
 
Regione MOSELLE
Località Giorno Ora Temp. Umid. Relat. Dew Point Press. Atm. Velocità Vento Direz. Vento Precip. Temp.
Min
Temp.
Max
Seremange Erzange (Moselle) 21/06/18 23.59 11.9 °C 67 % 6.0 °C 1025.4 hPa 11.2 Km/h WNW 0.0 mm  12.8 °C 22.0 °C
 
 
Regione PIEMONTE
Località Giorno Ora Temp. Umid. Relat. Dew Point Press. Atm. Velocità Vento Direz. Vento Precip. Temp.
Min
Temp.
Max
Castelferro (AL) 21/06/18 23.58 22.7 °C 73 % 17.6 °C 1011.5 hPa 6.4 Km/h SSW 0.0 mm  19.1 °C 32.9 °C
Magnano (BI) 21/06/18 23.58 19.8 °C 92 % 18.5 °C 1003.1 hPa 0.0 Km/h SW 0.0 mm  17.2 °C 29.4 °C
Monasterolo Torinese (TO) 21/06/18 23.50 21.5 °C 73 % 16.4 °C 1008.2 hPa 0.0 Km/h --- 0.0 mm  19.5 °C 29.2 °C
Mongrando San Michele (BI) 21/06/18 23.50 20.3 °C 84 % 17.5 °C 1010.4 hPa 0.0 Km/h WNW 0.0 mm  17.3 °C 29.4 °C
Muzzano (BI) 21/06/18 23.50 22.7 °C 73 % 17.6 °C 1008.9 hPa 4.8 Km/h WNW 0.0 mm  19.4 °C 29.6 °C
Nichelino (TO) 21/06/18 23.50 25.4 °C 68 % 19.1 °C 1012.3 hPa 3.2 Km/h S 0.0 mm  20.8 °C 32.7 °C
Novara (NO) 21/06/18 23.50 24.6 °C 64 % 17.3 °C 1010.7 hPa 0.0 Km/h W 0.6 mm  19.7 °C 32.9 °C
Ostana (CN) 16/06/18 16.03 0.0 °C 0 % -37.0 °C 1009.7 hPa 0.0 Km/h --- 0.0 mm  0.0 °C 0.0 °C
Parella (TO) 21/06/18 23.49 23.3 °C 77 % 19.1 °C 1008.4 hPa 0.0 Km/h NW 0.0 mm  19.7 °C 30.4 °C
Pecetto Torinese (TO) 21/06/18 23.49 23.1 °C 73 % 18.0 °C 1010.4 hPa 0.0 Km/h ENE 0.0 mm  20.8 °C 32.2 °C
Pila Valsesia (VC) 21/06/18 23.55 20.5 °C 86 % 18.1 °C 1008.7 hPa 0.0 Km/h NW 0.0 mm  15.6 °C 28.3 °C
Piovà Massaia (AT) 21/06/18 23.58 22.0 °C 76 % 17.6 °C 1009.2 hPa 3.2 Km/h NE 0.2 mm  19.8 °C 30.6 °C
Pozzolo Formigaro (AL) 21/06/18 23.52 22.6 °C 71 % 17.1 °C 1012.5 hPa 2.2 Km/h SSE 0.0 mm  17.5 °C 32.8 °C
Pray (BI) 21/06/18 23.59 21.1 °C 89 % 19.2 °C 1010.3 hPa 0.0 Km/h --- 0.0 mm  16.9 °C 28.8 °C
Soriso (NO) 21/06/18 23.50 22.1 °C 82 % 18.8 °C 1010.8 hPa 0.0 Km/h --- 0.0 mm  19.0 °C 29.7 °C
Torino Regio Parco (TO) 22/06/18 00.00 26.6 °C 64 % 19.2 °C 1011.9 hPa 3.9 Km/h ESE 0.0 mm  26.6 °C 26.6 °C
Valenza (AL) 21/06/18 23.50 23.6 °C 69 % 17.6 °C 1009.7 hPa 4.8 Km/h S 0.0 mm  20.1 °C 31.5 °C
Viozene Toria (CN) 22/06/18 00.00 14.3 °C 72 % 9.3 °C 1023.2 hPa 1.0 Km/h N 0.0 mm  14.3 °C 14.3 °C
 
 
Regione PUGLIA
Località Giorno Ora Temp. Umid. Relat. Dew Point Press. Atm. Velocità Vento Direz. Vento Precip. Temp.
Min
Temp.
Max
Acquaviva delle Fonti (BA) 21/06/18 23.58 20.6 °C 67 % 14.2 °C 1014.9 hPa 0.0 Km/h SW 0.0 mm  18.9 °C 30.8 °C
S. Giovanni Rotondo (FG) 21/06/18 23.50 20.3 °C 63 % 13.1 °C 1013.9 hPa 0.0 Km/h --- 0.0 mm  17.8 °C 27.9 °C
Torremaggiore (FG) 22/06/18 00.00 22.1 °C 75 % 17.4 °C 1012.8 hPa 0.0 Km/h SSE 0.0 mm  22.1 °C 22.1 °C
 
 
Regione SARDEGNA
Località Giorno Ora Temp. Umid. Relat. Dew Point Press. Atm. Velocità Vento Direz. Vento Precip. Temp.
Min
Temp.
Max
Bitti (NU) 21/06/18 23.59 20.0 °C 76 % 15.7 °C 1018.5 hPa 5.8 Km/h SSW 3.1 mm  17.0 °C 26.8 °C
Bonorva (SS) 21/06/18 23.50 19.6 °C 85 % 17.0 °C 1015.9 hPa 0.0 Km/h --- 1.4 mm  15.9 °C 28.6 °C
Borore (NU) 21/06/18 23.59 18.7 °C 86 % 16.3 °C 1015.1 hPa 0.0 Km/h N 1.4 mm  15.9 °C 29.9 °C
Iglesias (CI) 21/06/18 23.49 21.7 °C 78 % 17.7 °C 1018.2 hPa 0.0 Km/h SSW 0.0 mm  18.8 °C 29.7 °C
Oristano (OR) 21/06/18 23.59 21.6 °C 86 % 19.1 °C 1015.5 hPa 0.0 Km/h NNE 0.0 mm  18.1 °C 29.9 °C
Orosei (NU) 21/06/18 23.55 23.1 °C 85 % 20.4 °C 1015.2 hPa 0.0 Km/h NW 0.0 mm  19.6 °C 28.3 °C
San Vito (CA) 18/06/18 13.51 19.2 °C 69 % 13.4 °C 1007.2 hPa 5.8 Km/h ENE 0.0 mm  19.2 °C 19.2 °C
Sinnai (CA) 21/06/18 23.40 22.2 °C 88 % 20.1 °C 1016.2 hPa 0.0 Km/h --- 0.0 mm  20.1 °C 30.3 °C
 
 
Regione SICILIA
Località Giorno Ora Temp. Umid. Relat. Dew Point Press. Atm. Velocità Vento Direz. Vento Precip. Temp.
Min
Temp.
Max
Barcellona P.G. Centro (ME) 21/06/18 23.58 22.1 °C 78 % 18.1 °C 1016.3 hPa 6.4 Km/h S 0.0 mm  20.1 °C 28.3 °C
Barcellona Pozzo di Gotto (ME) 21/06/18 23.58 22.5 °C 74 % 17.6 °C 1015.6 hPa 0.4 Km/h SSW 0.0 mm  20.3 °C 27.6 °C
Brolo c/da Parrazzà (ME) 21/06/18 23.55 20.8 °C 84 % 18.0 °C 1016.8 hPa 16.0 Km/h SE 0.0 mm  19.9 °C 26.1 °C
Cammarata (AG) 21/06/18 23.58 16.1 °C 53 % 6.5 °C 1013.2 hPa 2.3 Km/h N 38.4 mm  15.9 °C 25.6 °C
Cefalù (PA) 21/06/18 23.58 21.8 °C 78 % 17.8 °C 1013.0 hPa 3.2 Km/h SSE 0.0 mm  21.0 °C 25.1 °C
Mirabella Imbaccari (CT) 21/06/18 23.55 17.6 °C 84 % 14.9 °C 1015.7 hPa 3.7 Km/h WNW 4.2 mm  17.5 °C 25.8 °C
Pace del Mela (ME) 21/06/18 23.58 21.3 °C 79 % 17.5 °C 1017.8 hPa 2.9 Km/h SE 0.0 mm  18.5 °C 27.9 °C
Piraino contr. Fiumara (ME) 21/06/18 23.50 20.6 °C 88 % 18.5 °C 1017.3 hPa 0.0 Km/h N 0.0 mm  18.8 °C 27.4 °C
San Giovanni la Punta Trappeto (CT) 21/06/18 23.55 20.1 °C 77 % 16.0 °C 1017.1 hPa 9.7 Km/h N 0.4 mm  18.8 °C 26.9 °C
 
 
Regione TOSCANA
Località Giorno Ora Temp. Umid. Relat. Dew Point Press. Atm. Velocità Vento Direz. Vento Precip. Temp.
Min
Temp.
Max
Bientina (PI) 21/06/18 23.59 22.3 °C 85 % 19.7 °C 1013.5 hPa 1.1 Km/h NW 0.0 mm  20.1 °C 30.7 °C
Carmignano loc. Seano (PO) 21/06/18 23.59 23.1 °C 72 % 17.8 °C 1014.0 hPa 0.2 Km/h ESE 0.0 mm  18.6 °C 32.3 °C
Castelnuovo V.C. (PI) 21/06/18 23.50 18.3 °C 70 % 12.7 °C 1013.8 hPa 0.2 Km/h NNW 0.0 mm  16.2 °C 26.9 °C
Isola d'Elba Marina di Campo (LI) 21/06/18 23.45 21.3 °C 87 % 19.0 °C 1001.6 hPa 0.0 Km/h --- 0.0 mm  18.6 °C 27.1 °C
Massarosa (LU) 21/06/18 23.59 22.4 °C 88 % 20.3 °C 1002.8 hPa 0.0 Km/h NW 0.0 mm  19.9 °C 29.3 °C
Montespertoli (FI) 16/06/18 08.43 20.8 °C 61 % 13.0 °C 1014.4 hPa 4.3 Km/h N 0.0 mm  -17.8 °C 20.8 °C
Montopoli in val d'Arno Loc. Capanne (PI) 21/06/18 23.45 21.4 °C 81 % 18.1 °C 1014.5 hPa 0.8 Km/h SSW 0.0 mm  16.8 °C 29.6 °C
Pisa zona I Passi (PI) 21/06/18 23.59 22.1 °C 72 % 16.8 °C 1015.3 hPa 2.5 Km/h ESE 0.0 mm  19.4 °C 28.9 °C
Reggello (FI) 21/06/18 23.59 19.1 °C 70 % 13.5 °C 1017.4 hPa 12.9 Km/h SO 0.0 mm  18.0 °C 29.3 °C
Torri (FI) 21/06/18 23.45 20.2 °C 71 % 14.8 °C 1013.8 hPa 0.0 Km/h --- 0.0 mm  16.2 °C 30.7 °C
Torrita di Siena (SI) 21/06/18 23.50 20.5 °C 79 % 16.7 °C 1015.7 hPa 3.2 Km/h WNW 0.0 mm  16.1 °C 32.4 °C
 
 
Regione TRENTINO A. A.
Località Giorno Ora Temp. Umid. Relat. Dew Point Press. Atm. Velocità Vento Direz. Vento Precip. Temp.
Min
Temp.
Max
Ala (TN) 21/06/18 23.58 22.4 °C 76 % 18.0 °C 1010.4 hPa 0.0 Km/h SE 0.0 mm  18.9 °C 29.8 °C
Avio (TN) 21/06/18 23.59 23.4 °C 77 % 19.1 °C 1010.9 hPa 0.0 Km/h S 0.0 mm  19.9 °C 32.6 °C
Besenello (TN) 21/06/18 23.58 22.8 °C 75 % 18.2 °C 1011.4 hPa 1.9 Km/h WNW 0.0 mm  17.3 °C 32.6 °C
Bolognano di Arco (TN) 21/06/18 23.58 23.2 °C 77 % 18.9 °C 1010.5 hPa 0.0 Km/h S 0.0 mm  18.9 °C 29.9 °C
Borgo Valsugana (TN) 21/06/18 23.49 20.3 °C 88 % 18.2 °C 1011.7 hPa 0.0 Km/h SSW 12.4 mm  17.8 °C 30.6 °C
Calliano (TN) 21/06/18 23.58 22.4 °C 78 % 18.4 °C 1010.2 hPa 9.7 Km/h ESE 0.0 mm  16.9 °C 32.3 °C
Fiavè loc. Ballino (TN) 21/06/18 23.58 18.2 °C 94 % 17.2 °C 1011.2 hPa 4.8 Km/h N 4.4 mm  15.9 °C 25.8 °C
Gardolo (TN) 21/06/18 23.58 23.3 °C 73 % 18.2 °C 1011.7 hPa 8.7 Km/h NE 0.0 mm  17.7 °C 31.3 °C
Isera loc. Reviano (TN) 21/06/18 23.59 21.9 °C 77 % 17.7 °C 1010.9 hPa 4.6 Km/h W 0.0 mm  17.8 °C 30.4 °C
Lavis (TN) 21/06/18 22.55 23.2 °C 73 % 18.2 °C 1012.0 hPa 9.6 Km/h NW 0.0 mm  18.1 °C 32.2 °C
Margone (TN) 21/06/18 23.55 18.4 °C 86 % 16.0 °C 1013.2 hPa 4.8 Km/h NNW 0.0 mm  15.7 °C 23.9 °C
Massone di Arco (TN) 21/06/18 23.58 23.7 °C 74 % 18.8 °C 1010.8 hPa 2.0 Km/h ENE 0.0 mm  19.5 °C 28.8 °C
Miola di Piné (TN) 21/06/18 23.58 18.7 °C 84 % 15.9 °C 1011.5 hPa 0.2 Km/h WNW 0.0 mm  14.9 °C 25.6 °C
Padergnone (TN) 21/06/18 23.45 21.4 °C 86 % 18.9 °C 1011.4 hPa 1.7 Km/h SE 0.0 mm  16.6 °C 31.2 °C
Taio Mollaro (TN) 21/06/18 23.59 20.0 °C 86 % 17.6 °C 1015.3 hPa 0.0 Km/h NNE 0.6 mm  16.3 °C 30.8 °C
Trento (TN) 22/06/18 00.00 24.8 °C 68 % 18.5 °C 1010.3 hPa 0.0 Km/h N 0.0 mm  21.1 °C 33.0 °C
Vattaro fraz. Pian dei Pradi (TN) 21/06/18 23.58 19.1 °C 86 % 16.7 °C 1011.8 hPa 2.2 Km/h SSW 0.0 mm  15.8 °C 26.9 °C
 
 
Regione UMBRIA
Località Giorno Ora Temp. Umid. Relat. Dew Point Press. Atm. Velocità Vento Direz. Vento Precip. Temp.
Min
Temp.
Max
Castiglione del Lago (PG) 21/06/18 23.50 21.1 °C 83 % 18.1 °C 1016.5 hPa 0.0 Km/h S 1.8 mm  17.0 °C 30.7 °C
Foligno (PG) 20/06/18 09.20 24.7 °C 53 % 14.4 °C 1018.2 hPa 6.4 Km/h NNE 0.0 mm  19.5 °C 24.8 °C
Orvieto (TR) 21/06/18 22.46 20.4 °C 82 % 17.2 °C 1014.5 hPa 0.0 Km/h ESE 1.0 mm  16.9 °C 29.5 °C
Perugia San Mariano (PG) 21/06/18 23.45 21.6 °C 76 % 17.2 °C 1015.7 hPa 3.1 Km/h E 0.0 mm  18.4 °C 30.9 °C
 
 
Regione VALLE DAOSTA
Località Giorno Ora Temp. Umid. Relat. Dew Point Press. Atm. Velocità Vento Direz. Vento Precip. Temp.
Min
Temp.
Max
Colle del Piccolo San Bernardo La Thuile (AO) 19/06/18 10.51 10.5 °C 76 % 6.7 °C 1021.9 hPa 14.0 Km/h SSW 0.0 mm  5.1 °C 10.6 °C
 
 
Regione VENETO
Località Giorno Ora Temp. Umid. Relat. Dew Point Press. Atm. Velocità Vento Direz. Vento Precip. Temp.
Min
Temp.
Max
Abano (PD) 21/06/18 23.55 25.8 °C 72 % 20.3 °C 1008.8 hPa 8.0 Km/h S 0.0 mm  20.7 °C 33.2 °C
Alleghe (BL) 21/06/18 23.58 12.6 °C 92 % 11.3 °C 1005.3 hPa 0.0 Km/h SE 8.7 mm  12.3 °C 25.2 °C
Alleghe Lago (BL) 21/06/18 23.58 13.5 °C 92 % 12.2 °C 1018.1 hPa 9.5 Km/h NE 2.5 mm  13.3 °C 24.2 °C
Arquà Polesine (RO) 21/06/18 23.58 23.6 °C 79 % 19.7 °C 1012.2 hPa 0.0 Km/h NNE 0.0 mm  17.6 °C 34.2 °C
Arzignano loc. Castello (VI) 21/06/18 22.45 25.8 °C 70 % 19.9 °C 1009.6 hPa 0.0 Km/h NW 0.0 mm  20.4 °C 30.8 °C
Arzignano Pugnello (VI) 21/06/18 23.58 23.8 °C 78 % 20.0 °C 1009.0 hPa 0.0 Km/h W 0.0 mm  20.1 °C 30.2 °C
Arzignano San Bortolo (VI) 21/06/18 23.49 25.4 °C 70 % 19.6 °C 1008.4 hPa 1.6 Km/h NE 0.0 mm  22.4 °C 30.8 °C
Arzignano Tezze (VI) 21/06/18 23.49 25.9 °C 72 % 20.5 °C 1010.4 hPa 0.0 Km/h NNW 0.0 mm  18.1 °C 31.9 °C
Badia Calavena loc. San Valentino (VR) 21/06/18 23.58 21.2 °C 75 % 16.6 °C 1008.5 hPa 0.0 Km/h NNW 0.0 mm  18.4 °C 25.2 °C
Bardolino (VR) 21/06/18 23.58 25.3 °C 70 % 19.4 °C 1003.8 hPa 0.0 Km/h N 0.0 mm  21.9 °C 30.1 °C
Beccacivetta (VR) 21/06/18 23.49 26.5 °C 62 % 18.6 °C 1010.4 hPa 0.0 Km/h SSW 0.0 mm  20.8 °C 33.0 °C
Belluno Castion (BL) 21/06/18 23.30 19.5 °C 79 % 15.8 °C 1011.1 hPa 3.2 Km/h E 1.2 mm  15.6 °C 28.5 °C
Brendola (VI) 21/06/18 23.58 26.1 °C 90 % 24.3 °C 996.6 hPa 3.6 Km/h S 0.0 mm  20.7 °C 33.3 °C
Brugine2 (PD) 21/06/18 23.50 23.6 °C 88 % 21.5 °C 1010.5 hPa 0.0 Km/h ENE 0.6 mm  17.9 °C 31.5 °C
Caprino (VR) 20/06/18 09.32 24.9 °C 67 % 18.4 °C 1018.0 hPa 0.0 Km/h SW 0.0 mm  21.4 °C 24.9 °C
Carceri (PD) 21/06/18 23.42 24.7 °C 78 % 20.6 °C 1010.0 hPa 1.6 Km/h SE 0.0 mm  18.8 °C 33.6 °C
Cartigliano (VI) 21/06/18 23.58 24.9 °C 69 % 18.9 °C 1009.7 hPa 0.0 Km/h NE 0.0 mm  18.9 °C 32.3 °C
Castel d'Azzano (VR) 21/06/18 23.45 26.3 °C 66 % 19.4 °C 1065.8 hPa 0.0 Km/h --- 0.0 mm  20.8 °C 31.9 °C
Castelfranco Veneto (TV) 21/06/18 23.50 25.9 °C 74 % 20.9 °C 1010.5 hPa 0.0 Km/h --- 0.0 mm  20.8 °C 32.5 °C
Castelgomberto (VI) 21/06/18 09.11 26.3 °C 55 % 16.6 °C 1014.6 hPa 3.0 Km/h NNE 0.0 mm  20.4 °C 26.8 °C
Cavazzale (VI) 21/06/18 18.30 29.6 °C 53 % 19.0 °C 1010.2 hPa 3.2 Km/h SSW 0.0 mm  20.4 °C 33.8 °C
Cerea (VR) 21/06/18 22.15 27.6 °C 60 % 19.1 °C 1010.5 hPa 0.0 Km/h SSW 0.0 mm  20.1 °C 34.2 °C
Cerea2 (VR) 21/06/18 23.45 26.7 °C 56 % 17.2 °C 1012.1 hPa 5.1 Km/h SW 0.0 mm  19.3 °C 34.1 °C
Cima Grappa (TV) 21/06/18 23.58 13.5 °C 99 % 13.3 °C 1013.7 hPa 6.1 Km/h S 0.0 mm  12.7 °C 17.9 °C
Cittadella (PD) 21/06/18 22.43 26.9 °C 65 % 19.8 °C 1010.4 hPa 0.0 Km/h SE 0.0 mm  21.4 °C 32.8 °C
Cogollo del Cengio (VI) 21/06/18 23.56 22.1 °C 99 % 21.9 °C 1011.9 hPa 3.3 Km/h NW 0.0 mm  19.0 °C 29.1 °C
Cologna Veneta Sant'Andrea (VR) 21/06/18 23.50 23.6 °C 79 % 19.7 °C 1010.8 hPa 0.0 Km/h --- 0.0 mm  17.5 °C 33.3 °C
Colognola ai Colli (VR) 21/06/18 23.50 24.5 °C 77 % 20.2 °C 1011.0 hPa 0.0 Km/h N 0.0 mm  19.6 °C 31.9 °C
Contrada Dosso Gervasio (VR) 21/06/18 23.45 21.0 °C 75 % 16.1 °C 1010.1 hPa 2.0 Km/h SSE 0.0 mm  20.5 °C 20.6 °C
Costa di Vittorio Veneto (TV) 21/06/18 23.49 21.4 °C 91 % 19.9 °C 1010.4 hPa 0.0 Km/h NE 1.3 mm  20.0 °C 31.6 °C
Crespano del Grappa2 (TV) 21/06/18 23.49 23.5 °C 71 % 17.9 °C 1009.5 hPa 3.7 Km/h NNE 0.0 mm  20.5 °C 29.8 °C
Dossobuono (VR) 21/06/18 23.59 26.4 °C 65 % 19.3 °C 1012.0 hPa 0.0 Km/h S 0.0 mm  21.8 °C 31.7 °C
Erbezzo Passo Fittanze (VR) 21/06/18 23.37 16.1 °C 87 % 13.9 °C 1013.4 hPa 5.0 Km/h SE 0.0 mm  13.4 °C 20.0 °C
Falzè di Piave (TV) 21/06/18 22.38 23.1 °C 80 % 19.5 °C 1012.2 hPa 0.0 Km/h --- 0.0 mm  17.4 °C 32.7 °C
Farra di Soligo (TV) 21/06/18 23.59 22.5 °C 67 % 16.1 °C 1019.9 hPa 0.0 Km/h SSW 0.0 mm  18.6 °C 31.6 °C
Feltre Celarda (BL) 21/06/18 23.59 20.4 °C 89 % 18.5 °C 1013.4 hPa 0.0 Km/h NNE 0.0 mm  15.6 °C 31.5 °C
Ferrara di M.B. (VR) 21/06/18 23.40 18.1 °C 76 % 13.8 °C 1007.9 hPa 6.4 Km/h SSE 0.0 mm  13.4 °C 20.3 °C
Fumane Contrada La Ca (VR) 21/06/18 23.49 23.1 °C 70 % 17.3 °C 1015.8 hPa 3.2 Km/h W 0.0 mm  20.7 °C 30.9 °C
Gallio (VI) 21/06/18 23.45 16.4 °C 92 % 15.2 °C 1011.9 hPa 3.2 Km/h NNW 0.8 mm  13.6 °C 23.2 °C
Legnago (VR) 21/06/18 23.55 24.9 °C 79 % 21.0 °C 1011.0 hPa 0.0 Km/h --- 0.0 mm  18.3 °C 33.6 °C
Lugagnano (VR) 21/06/18 23.58 26.6 °C 68 % 20.0 °C 1009.0 hPa 0.0 Km/h SW 0.0 mm  21.1 °C 32.7 °C
Lusiana Sciessere (VI) 21/06/18 23.49 20.2 °C 80 % 16.6 °C 1016.1 hPa 1.4 Km/h ESE 0.0 mm  20.1 °C 26.3 °C
Marano Vicentino2 (VI) 21/06/18 23.55 25.1 °C 69 % 19.0 °C 1011.2 hPa 0.0 Km/h E 0.0 mm  19.4 °C 32.3 °C
Marostica Valle San Floriano (VI) 21/06/18 23.59 22.8 °C 81 % 19.4 °C 1011.9 hPa 0.0 Km/h S 0.0 mm  19.0 °C 30.8 °C
Merlara (PD) 21/06/18 23.50 22.8 °C 82 % 19.6 °C 1010.1 hPa 0.0 Km/h --- 0.0 mm  16.0 °C 31.2 °C
Mizzole (VR) 21/06/18 23.59 25.5 °C 68 % 19.2 °C 1011.1 hPa 4.7 Km/h NE 0.0 mm  22.2 °C 32.2 °C
Molina (VR) 21/06/18 23.49 19.3 °C 74 % 14.6 °C 1015.9 hPa 1.3 Km/h N 0.0 mm  19.3 °C 25.8 °C
Monselice (PD) 21/06/18 23.58 25.6 °C 70 % 19.7 °C 1011.5 hPa 1.1 Km/h NW 0.0 mm  19.0 °C 33.9 °C
Montebello Vicentino loc. Selva (VI) 21/06/18 23.58 23.9 °C 62 % 16.2 °C 1010.8 hPa 5.0 Km/h NE 0.0 mm  21.8 °C 31.0 °C
Montecchio Maggiore Sant'Urbano (VI) 21/06/18 23.46 24.8 °C 61 % 16.7 °C 1014.8 hPa 6.4 Km/h NE 0.0 mm  21.1 °C 31.8 °C
Monteforte d'Alpone2 (VR) 21/06/18 23.55 24.3 °C 79 % 20.5 °C 1009.3 hPa 3.2 Km/h S 1.6 mm  19.3 °C 31.8 °C
Montorio (VR) 21/06/18 23.49 25.6 °C 68 % 19.3 °C 1012.8 hPa 5.0 Km/h N 0.0 mm  21.5 °C 31.8 °C
Montorso Vicentino (VI) 21/06/18 23.59 23.7 °C 77 % 19.4 °C 1010.5 hPa 0.0 Km/h NE 0.0 mm  21.4 °C 29.8 °C
Onara extraurbana (PD) 21/06/18 23.55 25.5 °C 71 % 19.9 °C 1010.7 hPa 0.0 Km/h ESE 0.0 mm  19.1 °C 32.6 °C
Oppeano (VR) 20/06/18 21.35 27.1 °C 45 % 14.1 °C 1014.8 hPa 0.0 Km/h --- 0.0 mm  21.3 °C 33.7 °C
Pastrengo (VR) 21/06/18 23.48 25.7 °C 64 % 18.4 °C 1013.6 hPa 2.4 Km/h SW 0.0 mm  21.5 °C 32.4 °C
Pastrengo Corné (VR) 21/06/18 23.54 24.2 °C 73 % 19.1 °C 1009.2 hPa 0.0 Km/h ENE 0.0 mm  20.2 °C 29.8 °C
Pedemonte (VR) 21/06/18 23.50 24.3 °C 75 % 19.6 °C 1010.1 hPa 2.0 Km/h W 0.0 mm  18.8 °C 32.3 °C
Perarolo di Arcugnano (VI) 21/06/18 23.59 24.8 °C 73 % 19.6 °C 982.5 hPa 0.0 Km/h SSE 0.0 mm  20.1 °C 31.6 °C
Pescantina Are (VR) 21/06/18 23.50 -17.8 °C 0 % -17.8 °C 0.0 hPa 0.0 Km/h N 0.0 mm  -17.8 °C 33.1 °C
Peschiera del Garda (VR) 21/06/18 23.55 25.4 °C 69 % 19.3 °C 1010.9 hPa 4.8 Km/h SW 0.0 mm  20.7 °C 32.3 °C
Pian di Castagné (VR) 21/06/18 23.45 25.4 °C 62 % 17.6 °C 1010.4 hPa 0.0 Km/h ESE 0.0 mm  22.7 °C 28.0 °C
Pian di Castagné2 (VR) 18/06/18 13.09 25.4 °C 49 % 13.9 °C 1018.8 hPa 1.4 Km/h ESE 14.5 mm  14.3 °C 25.4 °C
Pojana Maggiore Cagnano (VI) 21/06/18 23.53 25.0 °C 72 % 19.6 °C 1009.0 hPa 5.0 Km/h W 0.0 mm  18.2 °C 33.3 °C
Ponte San Nicolò (PD) 21/06/18 23.49 26.7 °C 70 % 20.8 °C 1010.4 hPa 3.2 Km/h S 0.0 mm  21.9 °C 34.4 °C
Rifugio Bocca di Selva (VR) 21/06/18 23.59 15.6 °C 90 % 13.9 °C 1012.0 hPa 17.7 Km/h SW 0.0 mm  14.2 °C 17.6 °C
Rifugio Primaneve (VR) 21/06/18 23.49 13.5 °C 98 % 13.2 °C 1012.8 hPa 19.3 Km/h SSW 0.0 mm  12.9 °C 15.6 °C
Romano d'Ezzelino Fellette (VI) 21/06/18 23.58 25.0 °C 42 % 11.2 °C 1015.3 hPa 3.0 Km/h NE 0.0 mm  19.5 °C 31.1 °C
Rosolina (RO) 21/06/18 23.45 24.4 °C 79 % 20.5 °C 1011.6 hPa 4.8 Km/h S 0.0 mm  19.2 °C 33.9 °C
S. Giovanni Ilarione2 (VR) 21/06/18 23.55 23.3 °C 81 % 19.9 °C 1010.2 hPa 1.6 Km/h WNW 0.0 mm  18.6 °C 31.3 °C
S. Giovanni Lupatoto (VR) 21/06/18 23.50 26.2 °C 73 % 21.0 °C 1010.4 hPa 0.0 Km/h --- 0.0 mm  21.8 °C 34.2 °C
S. Lorenzo di Vittorio Veneto (TV) 21/06/18 21.10 24.3 °C 72 % 18.9 °C 1011.6 hPa 1.6 Km/h NW 0.0 mm  21.7 °C 29.1 °C
S. Maria di Zevio Loc. 3 Ponti (VR) 21/06/18 23.59 25.3 °C 75 % 20.6 °C 1012.1 hPa 2.0 Km/h NE 0.0 mm  20.6 °C 33.1 °C
S. Maria Maddalena (RO) 21/06/18 23.55 25.8 °C 72 % 20.6 °C 1010.0 hPa 0.0 Km/h SSE 0.0 mm  19.7 °C 32.5 °C
S. Martino Lupari (PD) 21/06/18 23.50 25.8 °C 75 % 21.0 °C 821.7 hPa 0.0 Km/h ENE 0.0 mm  20.8 °C 32.2 °C
Salcedo (VI) 21/06/18 23.59 23.3 °C 67 % 16.8 °C 1013.0 hPa 13.0 Km/h NE 0.0 mm  21.1 °C 29.2 °C
San Nazario (VI) 21/06/18 23.44 22.6 °C 79 % 18.8 °C 1010.9 hPa 3.5 Km/h NW 0.0 mm  20.5 °C 31.9 °C
San Pietro di Rosà (VI) 21/06/18 23.59 24.8 °C 73 % 19.6 °C 1014.5 hPa 0.0 Km/h NE 0.0 mm  20.0 °C 32.4 °C
San Pietro in Cariano (VR) 21/06/18 23.49 24.5 °C 73 % 19.4 °C 1011.7 hPa 6.1 Km/h NE 0.0 mm  21.0 °C 31.2 °C
San Zeno di Mont. Loc. Castello (VR) 22/06/18 00.00 22.3 °C 68 % 16.1 °C 1010.0 hPa 6.0 Km/h W 0.0 mm  22.3 °C 22.3 °C
Santa Maria di Negrar (VR) 21/06/18 23.49 23.9 °C 73 % 18.8 °C 1012.1 hPa 0.0 Km/h WNW 0.0 mm  20.1 °C 32.1 °C
Sarcedo (VI) 21/06/18 23.59 25.8 °C 66 % 19.0 °C 1010.1 hPa 0.0 Km/h NW 0.0 mm  22.0 °C 32.9 °C
Schio (VI) 21/06/18 23.35 24.8 °C 73 % 19.7 °C 1012.4 hPa 3.2 Km/h WNW 0.0 mm  20.6 °C 33.4 °C
Schio Monte Magré (VI) 22/06/18 00.00 22.2 °C 83 % 19.2 °C 0.0 hPa 0.0 Km/h SW 0.0 mm  19.4 °C 31.5 °C
Soave Borgo Bassano (VR) 21/06/18 23.55 22.9 °C 93 % 21.7 °C 1010.7 hPa 11.0 Km/h E 1.8 mm  19.9 °C 33.6 °C
Sona Loc. La Colombara (VR) 21/06/18 23.00 23.4 °C 83 % 20.0 °C 1007.2 hPa 0.0 Km/h SE 0.0 mm  22.3 °C 22.3 °C
Tombolo (PD) 22/06/18 00.00 25.9 °C 70 % 20.0 °C 1011.1 hPa 1.7 Km/h ENE 0.0 mm  100.0 °C -100.0 °C
Tregnago Loc. Centro (VR) 21/06/18 15.30 26.9 °C 59 % 18.2 °C 1006.7 hPa 14.5 Km/h W 0.0 mm  21.7 °C 27.4 °C
Treviso (TV) 21/06/18 23.58 24.6 °C 76 % 20.1 °C 1004.1 hPa 0.0 Km/h NE 0.0 mm  19.8 °C 32.5 °C
Val Lastaro (VI) 21/06/18 23.55 15.7 °C 94 % 15.0 °C 1012.5 hPa 0.0 Km/h NE 0.0 mm  10.1 °C 22.9 °C
Valdagno (VI) 21/06/18 23.59 23.7 °C 70 % 17.9 °C 998.7 hPa 2.5 Km/h E 0.0 mm  18.8 °C 31.5 °C
Valdobbiadene San Pietro di Barbozza (TV) 21/06/18 23.55 23.6 °C 71 % 18.0 °C 1010.4 hPa 6.4 Km/h E 0.0 mm  21.4 °C 28.2 °C
Valli del Pasubio loc. Gisbenti (VI) 22/06/18 00.00 20.0 °C 88 % 18.0 °C 969.0 hPa 0.0 Km/h --- 0.0 mm  20.0 °C 20.0 °C
Vazzo Roveré Veronese (VR) 22/06/18 00.00 20.2 °C 73 % 15.2 °C 1008.6 hPa 0.0 Km/h SW 0.0 mm  17.4 °C 24.4 °C
Verona Bgo Venezia (iz3sly) (VR) 21/06/18 23.50 25.1 °C 71 % 19.5 °C 1009.4 hPa 0.0 Km/h NNE 0.0 mm  21.4 °C 32.4 °C
Verona Cadidavid2 (VR) 21/06/18 23.00 25.3 °C 67 % 18.7 °C 1009.2 hPa 0.0 Km/h ENE 0.0 mm  18.9 °C 31.3 °C
Verona Saval3 (VR) 21/06/18 23.49 26.3 °C 63 % 18.7 °C 1012.1 hPa 0.0 Km/h E 0.0 mm  -17.8 °C 32.7 °C
Vicenza Campedello (VI) 22/06/18 00.08 24.6 °C 79 % 20.6 °C 1012.0 hPa 0.0 Km/h SSE 0.0 mm  24.6 °C 24.7 °C
Vicenza Moracchino (VI) 22/06/18 00.00 25.3 °C 70 % 19.5 °C 1010.2 hPa 0.0 Km/h NNW 0.0 mm  20.0 °C 33.5 °C
Vicenza S. Lazzaro (VI) 22/06/18 00.00 25.7 °C 72 % 20.6 °C 1009.8 hPa 5.0 Km/h N 0.0 mm  25.7 °C 25.8 °C
Vicenza San Gaetano (VI) 21/06/18 22.30 26.8 °C 71 % 21.1 °C 1010.6 hPa 0.0 Km/h ENE 0.2 mm  19.9 °C 32.7 °C
Vigardolo (VI) 21/06/18 23.49 25.1 °C 71 % 19.4 °C 1010.6 hPa 5.0 Km/h NE 0.0 mm  -17.8 °C 32.8 °C
Vigasio (VR) 21/06/18 23.40 27.0 °C 60 % 18.6 °C 1008.8 hPa 0.0 Km/h N 0.0 mm  21.1 °C 33.0 °C
Villabartolomea (VR) 21/06/18 23.49 24.7 °C 75 % 20.0 °C 1009.7 hPa 0.0 Km/h S 0.0 mm  24.4 °C 27.4 °C
Vittorio Veneto Parco Fenderl (TV) 21/06/18 23.40 20.6 °C 94 % 19.6 °C 1013.1 hPa 0.0 Km/h WSW 1.5 mm  20.6 °C 32.4 °C
Volpago del Montello (TV) 21/06/18 23.45 22.4 °C 85 % 19.7 °C 1011.3 hPa 0.0 Km/h --- 0.0 mm  18.5 °C 30.3 °C
 
 
 
(*) = Precipitazioni nelle ultime 24h.
Dati non aggiornati nell'ultima ora.
   
In collaborazione con:
 
Top! Top!